This is the latest recevied weather packets stored in our database for station/object EA4BCR. If no packets are shown the sender has not sent any weather packets the latest 10 day(s).
| Time | Temp. | Humidity | Pressure | Rain* | Wind** | Luminosity | Snow |
|---|---|---|---|---|---|---|---|
| 1787638812 | 17.78° C | 86% | 1016 hPa | - | - | - | - |
| 1787638212 | 17.78° C | 81% | 1015.8 hPa | - | - | - | - |
| 1787637612 | 17.78° C | 86% | 1015.9 hPa | - | - | - | - |
| 1787637012 | 17.78° C | 85% | 1015.8 hPa | - | - | - | - |
| 1787636414 | 17.22° C | 85% | 1015.8 hPa | - | - | - | - |
| 1787635812 | 16.67° C | 86% | 1015.9 hPa | - | - | - | - |
| 1787635212 | 17.22° C | 84% | 1015.7 hPa | - | - | - | - |
| 1787634612 | 17.22° C | 85% | 1015.6 hPa | - | - | - | - |
| 1787634012 | 17.22° C | 83% | 1015.6 hPa | - | - | - | - |
| 1787633412 | 17.22° C | 81% | 1015.5 hPa | - | - | - | - |
| 1787632812 | 17.78° C | 78% | 1015.2 hPa | - | - | - | - |
| 1787632212 | 17.78° C | 78% | 1015.3 hPa | - | - | - | - |
| 1787631612 | 17.22° C | 87% | 1015.6 hPa | - | - | - | - |
| 1787631012 | 16.67° C | 84% | 1015.8 hPa | - | - | - | - |
| 1787630412 | 17.78° C | 77% | 1015.4 hPa | - | - | - | - |
| 1787629812 | 17.78° C | 77% | 1015.6 hPa | - | - | - | - |
| 1787629212 | 17.78° C | 75% | 1015.4 hPa | - | - | - | - |
| 1787628613 | 17.78° C | 78% | 1015.5 hPa | - | - | - | - |
| 1787628012 | 17.78° C | 75% | 1015.7 hPa | - | - | - | - |
| 1787627412 | 18.33° C | 75% | 1015.6 hPa | - | - | - | - |
| 1787626812 | 18.33° C | 75% | 1015.5 hPa | - | - | - | - |
| 1787626212 | 18.33° C | 73% | 1015.5 hPa | - | - | - | - |
| 1787625612 | 18.33° C | 74% | 1015.5 hPa | - | - | - | - |
| 1787625012 | 18.33° C | 72% | 1015.3 hPa | - | - | - | - |
| 1787624412 | 18.89° C | 70% | 1015.4 hPa | - | - | - | - |
* Rain since midnight (hover to see other rain measurements)
** Current wind speed in m/s (hover to see current wind gust speed)